Time;durP1;ratioP1;P1;durP2;ratioP2;P2;SDS_P1;SDS_P2;PMS_P1;PMS_P2;Temp;Humidity;BMP_temperature;BMP_pressure;BME280_temperature;BME280_humidity;BME280_pressure;Samples;Min_cycle;Max_cycle;Signal;HPM_P1;HPM_P2
2022/02/11 00:07:03;;;;;;;13.02;5.55;;;;;;;;;;5050076;28;20024;-79
2022/02/11 00:09:29;;;;;;;10.82;5.70;;;;;;;;;;5050953;28;20025;-79
2022/02/11 00:11:56;;;;;;;16.52;6.90;;;;;;;;;;5068099;28;20120;-78
2022/02/11 00:14:25;;;;;;;13.93;6.95;;;;;;;;;;5053433;28;20035;-78
2022/02/11 00:16:51;;;;;;;11.90;6.70;;;;;;;;;;5049501;28;20504;-78
2022/02/11 00:19:16;;;;;;;12.18;6.07;;;;;;;;;;5067675;28;20037;-79
2022/02/11 00:21:42;;;;;;;12.15;6.28;;;;;;;;;;5068206;28;20032;-79
2022/02/11 00:24:10;;;;;;;10.88;5.70;;;;;;;;;;5054012;28;20072;-78
2022/02/11 00:26:38;;;;;;;11.15;5.80;;;;;;;;;;5048687;28;20035;-78
2022/02/11 00:34:19;;;;;;;12.80;5.57;;;;;;;;;;5050445;28;20022;-79
2022/02/11 00:36:55;;;;;;;12.30;6.03;;;;;;;;;;5068615;28;20021;-79
2022/02/11 00:40:06;;;;;;;13.32;5.53;;;;;;;;;;5060690;28;20066;-79
2022/02/11 01:04:09;;;;;;;15.60;7.95;;;;;;;;;;5049351;28;20036;-78
2022/02/11 01:06:35;;;;;;;14.55;6.85;;;;;;;;;;5065215;28;20041;-79
2022/02/11 01:09:00;;;;;;;17.98;7.40;;;;;;;;;;5052995;28;20035;-79
2022/02/11 01:11:43;;;;;;;16.90;7.10;;;;;;;;;;5048814;28;20028;-78
2022/02/11 01:14:08;;;;;;;16.88;7.05;;;;;;;;;;5049346;28;20063;-78
2022/02/11 01:17:39;;;;;;;14.65;7.70;;;;;;;;;;5048320;28;20477;-80
2022/02/11 01:19:41;;;;;;;16.23;7.45;;;;;;;;;;5048150;28;20040;-78
2022/02/11 01:27:30;;;;;;;12.63;7.13;;;;;;;;;;5046886;28;20025;-78
2022/02/11 01:30:17;;;;;;;20.73;7.97;;;;;;;;;;5051358;28;20473;-78
2022/02/11 01:45:53;;;;;;;27.83;12.50;;;;;;;;;;5050368;28;20028;-79
2022/02/11 01:51:15;;;;;;;25.25;12.07;;;;;;;;;;5047819;28;20035;-79
2022/02/11 01:54:04;;;;;;;24.33;12.20;;;;;;;;;;5046037;28;20029;-78
2022/02/11 01:57:09;;;;;;;27.90;11.75;;;;;;;;;;5047107;28;20082;-79
2022/02/11 02:12:50;;;;;;;22.15;10.50;;;;;;;;;;5048708;28;20474;-76
2022/02/11 02:25:34;;;;;;;21.15;9.27;;;;;;;;;;5050324;28;20021;-77
2022/02/11 02:58:09;;;;;;;23.10;9.30;;;;;;;;;;5047591;28;20459;-78
2022/02/11 03:17:34;;;;;;;;;;;;;;;;;;;;;
2022/02/11 03:52:38;;;;;;;6.88;3.33;;;;;;;;;;5046034;28;20039;-79
2022/02/11 04:08:41;;;;;;;6.07;3.50;;;;;;;;;;5065284;28;20055;-78
2022/02/11 04:59:51;;;;;;;2.90;2.10;;;;;;;;;;5043639;28;20056;-79
2022/02/11 05:02:25;;;;;;;5.03;3.35;;;;;;;;;;5047869;28;20032;-78
2022/02/11 05:04:53;;;;;;;4.85;3.22;;;;;;;;;;5052169;28;20031;-78
2022/02/11 05:07:19;;;;;;;5.45;3.35;;;;;;;;;;5065641;28;20089;-77
2022/02/11 05:09:44;;;;;;;6.70;4.03;;;;;;;;;;5050085;28;20132;-78
2022/02/11 05:12:10;;;;;;;6.97;4.32;;;;;;;;;;5066908;28;20025;-78
2022/02/11 05:14:35;;;;;;;7.28;4.10;;;;;;;;;;5050018;28;20021;-79
2022/02/11 05:17:05;;;;;;;7.82;4.03;;;;;;;;;;5050203;28;20445;-79
2022/02/11 05:19:31;;;;;;;8.00;4.20;;;;;;;;;;5048029;28;20044;-79
2022/02/11 05:21:56;;;;;;;7.65;3.80;;;;;;;;;;5048558;28;20091;-78
2022/02/11 05:24:22;;;;;;;8.25;5.00;;;;;;;;;;5047382;28;20055;-78
2022/02/11 05:26:47;;;;;;;7.18;4.65;;;;;;;;;;5052130;28;20025;-79
2022/02/11 05:29:13;;;;;;;7.70;4.63;;;;;;;;;;5047279;28;20670;-79
2022/02/11 05:31:38;;;;;;;8.00;4.50;;;;;;;;;;5048566;28;20104;-79
2022/02/11 05:34:04;;;;;;;7.00;4.50;;;;;;;;;;5053095;28;20068;-79
2022/02/11 05:36:30;;;;;;;8.77;5.03;;;;;;;;;;5050973;28;20158;-78
2022/02/11 05:38:57;;;;;;;8.77;4.68;;;;;;;;;;5049174;28;20055;-79
2022/02/11 05:41:23;;;;;;;11.48;5.20;;;;;;;;;;5048544;28;20499;-78
2022/02/11 05:43:48;;;;;;;11.13;5.10;;;;;;;;;;5046269;28;20044;-78
2022/02/11 05:46:14;;;;;;;11.43;5.03;;;;;;;;;;5052192;28;20362;-78
2022/02/11 05:48:40;;;;;;;9.20;5.25;;;;;;;;;;5045279;28;20063;-78
2022/02/11 05:51:09;;;;;;;7.97;4.80;;;;;;;;;;5046187;28;20029;-78
2022/02/11 05:53:34;;;;;;;7.88;4.57;;;;;;;;;;5043341;28;20021;-78
2022/02/11 05:56:00;;;;;;;10.30;4.90;;;;;;;;;;5051336;28;20033;-77
2022/02/11 05:58:29;;;;;;;8.48;5.15;;;;;;;;;;5049207;28;20393;-78
2022/02/11 06:00:56;;;;;;;9.60;5.30;;;;;;;;;;5053725;28;20033;-78
2022/02/11 06:03:22;;;;;;;8.50;5.07;;;;;;;;;;5049027;28;20510;-78
2022/02/11 06:05:47;;;;;;;8.70;5.07;;;;;;;;;;5047653;28;20123;-78
2022/02/11 06:08:13;;;;;;;10.68;5.80;;;;;;;;;;5050384;28;20167;-78
2022/02/11 06:10:38;;;;;;;14.20;5.40;;;;;;;;;;5048710;28;20085;-77
2022/02/11 06:13:04;;;;;;;8.98;4.90;;;;;;;;;;5045028;28;20028;-77
2022/02/11 06:15:30;;;;;;;10.52;4.97;;;;;;;;;;5050192;28;20203;-77
2022/02/11 06:17:55;;;;;;;12.30;5.25;;;;;;;;;;5046437;28;20572;-78
2022/02/11 06:20:28;;;;;;;10.27;5.50;;;;;;;;;;5049037;28;20581;-78
2022/02/11 06:22:58;;;;;;;13.63;5.82;;;;;;;;;;5048850;28;20025;-78
2022/02/11 06:25:24;;;;;;;9.55;5.05;;;;;;;;;;5048845;28;20033;-78
2022/02/11 06:27:52;;;;;;;9.18;4.88;;;;;;;;;;5046573;28;20273;-78
2022/02/11 06:30:20;;;;;;;9.45;5.03;;;;;;;;;;5059281;28;20040;-78
2022/02/11 06:32:48;;;;;;;11.00;5.20;;;;;;;;;;5060783;28;20055;-78
2022/02/11 06:35:14;;;;;;;12.30;5.25;;;;;;;;;;5046415;28;20021;-76
2022/02/11 06:37:45;;;;;;;11.50;5.50;;;;;;;;;;5048301;28;20029;-76
2022/02/11 06:40:13;;;;;;;11.88;6.25;;;;;;;;;;5061139;28;20582;-77
2022/02/11 06:42:40;;;;;;;11.75;5.45;;;;;;;;;;5048919;28;20029;-77
2022/02/11 06:45:06;;;;;;;14.35;6.38;;;;;;;;;;5050400;28;20036;-76
2022/02/11 06:47:31;;;;;;;15.02;6.80;;;;;;;;;;5046827;28;20025;-75
2022/02/11 06:49:57;;;;;;;18.42;7.57;;;;;;;;;;5045859;28;20481;-76
2022/02/11 06:52:22;;;;;;;10.55;5.25;;;;;;;;;;5045534;28;20063;-76
2022/02/11 06:54:48;;;;;;;11.48;5.93;;;;;;;;;;5045402;28;20025;-76
2022/02/11 06:57:13;;;;;;;9.95;5.15;;;;;;;;;;5050495;28;20055;-76
2022/02/11 06:59:39;;;;;;;9.15;5.25;;;;;;;;;;5048462;28;20048;-74
2022/02/11 07:02:14;;;;;;;12.05;5.55;;;;;;;;;;5047298;28;20476;-77
2022/02/11 07:04:39;;;;;;;13.40;6.07;;;;;;;;;;5050334;28;20111;-76
2022/02/11 07:07:05;;;;;;;16.75;6.70;;;;;;;;;;5055869;28;20056;-75
2022/02/11 07:09:32;;;;;;;13.80;7.55;;;;;;;;;;5049221;28;20029;-77
2022/02/11 07:11:58;;;;;;;18.20;8.65;;;;;;;;;;5050918;28;20036;-77
2022/02/11 07:14:26;;;;;;;16.55;7.22;;;;;;;;;;5046536;28;20029;-77
2022/02/11 07:16:54;;;;;;;16.52;7.25;;;;;;;;;;5049532;28;20051;-75
2022/02/11 07:19:20;;;;;;;14.82;7.45;;;;;;;;;;5047443;28;20120;-77
2022/02/11 07:21:46;;;;;;;14.25;6.03;;;;;;;;;;5045072;28;20163;-77
2022/02/11 07:24:11;;;;;;;12.15;6.45;;;;;;;;;;5048338;28;20025;-77
2022/02/11 07:26:37;;;;;;;12.75;5.50;;;;;;;;;;5044681;28;20032;-76
2022/02/11 07:29:05;;;;;;;10.90;5.50;;;;;;;;;;5045104;28;20025;-77
2022/02/11 07:31:33;;;;;;;10.50;5.75;;;;;;;;;;5044977;28;20036;-77
2022/02/11 07:33:58;;;;;;;13.30;6.15;;;;;;;;;;5049530;28;20116;-77
2022/02/11 07:36:26;;;;;;;14.57;6.60;;;;;;;;;;5048615;28;20112;-77
2022/02/11 07:38:54;;;;;;;15.45;6.50;;;;;;;;;;5047601;28;20106;-78
2022/02/11 07:41:21;;;;;;;18.58;8.15;;;;;;;;;;5046857;28;20037;-76
2022/02/11 07:43:47;;;;;;;16.83;8.15;;;;;;;;;;5045274;28;20115;-77
2022/02/11 07:46:15;;;;;;;16.70;8.15;;;;;;;;;;5059959;28;20138;-76
2022/02/11 07:48:41;;;;;;;16.88;8.57;;;;;;;;;;5063064;28;20029;-77
2022/02/11 07:51:06;;;;;;;18.85;8.32;;;;;;;;;;5046337;28;20031;-77
2022/02/11 07:53:35;;;;;;;15.90;7.32;;;;;;;;;;5049005;28;20032;-77
2022/02/11 07:56:01;;;;;;;21.40;9.30;;;;;;;;;;5047044;28;20527;-78
2022/02/11 07:58:30;;;;;;;20.67;10.20;;;;;;;;;;5049170;28;20478;-76
2022/02/11 08:01:00;;;;;;;15.60;8.13;;;;;;;;;;5043993;28;20029;-75
2022/02/11 08:03:26;;;;;;;19.85;9.13;;;;;;;;;;5048235;28;20032;-78
2022/02/11 08:05:55;;;;;;;13.63;7.40;;;;;;;;;;5044479;28;20052;-77
2022/02/11 08:08:24;;;;;;;17.45;8.13;;;;;;;;;;5048192;28;20021;-76
2022/02/11 08:10:49;;;;;;;13.48;6.70;;;;;;;;;;5050175;28;20124;-76
2022/02/11 08:13:18;;;;;;;12.55;6.63;;;;;;;;;;5052850;28;20148;-77
2022/02/11 08:15:46;;;;;;;12.77;6.57;;;;;;;;;;5049838;28;20029;-77
2022/02/11 08:18:12;;;;;;;14.05;7.15;;;;;;;;;;5047270;28;20060;-77
2022/02/11 08:20:38;;;;;;;12.60;6.55;;;;;;;;;;5051665;28;20411;-76
2022/02/11 08:23:04;;;;;;;12.77;7.00;;;;;;;;;;5046143;28;20029;-76
2022/02/11 08:25:34;;;;;;;11.52;5.93;;;;;;;;;;5048861;28;20500;-78
2022/02/11 08:28:01;;;;;;;12.10;5.80;;;;;;;;;;5046909;28;20091;-76
2022/02/11 08:30:28;;;;;;;9.90;5.18;;;;;;;;;;5050693;28;20029;-77
2022/02/11 08:32:53;;;;;;;9.23;5.20;;;;;;;;;;5048547;28;20116;-77
2022/02/11 08:35:19;;;;;;;14.02;6.90;;;;;;;;;;5065291;28;20473;-76
2022/02/11 08:37:45;;;;;;;10.82;4.75;;;;;;;;;;5049241;28;20025;-77
2022/02/11 08:40:11;;;;;;;11.82;4.53;;;;;;;;;;5050959;28;20043;-76
2022/02/11 08:42:37;;;;;;;7.22;4.20;;;;;;;;;;5049341;28;20039;-75
2022/02/11 08:45:04;;;;;;;7.20;4.15;;;;;;;;;;5064150;28;20032;-76
2022/02/11 08:47:31;;;;;;;9.52;4.45;;;;;;;;;;5046796;28;20504;-76
2022/02/11 08:49:59;;;;;;;9.15;5.20;;;;;;;;;;5052104;28;20112;-76
2022/02/11 08:52:25;;;;;;;10.88;4.15;;;;;;;;;;5046062;28;20039;-76
2022/02/11 08:54:52;;;;;;;12.93;6.18;;;;;;;;;;5047074;28;20051;-75
2022/02/11 08:57:20;;;;;;;9.10;5.10;;;;;;;;;;5049619;28;20339;-77
2022/02/11 08:59:46;;;;;;;7.88;4.63;;;;;;;;;;5045437;28;20457;-76
2022/02/11 09:02:14;;;;;;;8.80;4.55;;;;;;;;;;5049298;28;20111;-76
2022/02/11 09:04:43;;;;;;;6.95;3.97;;;;;;;;;;5065237;28;20036;-77
2022/02/11 09:07:09;;;;;;;8.30;4.32;;;;;;;;;;5050854;28;20021;-77
2022/02/11 09:09:38;;;;;;;10.55;5.15;;;;;;;;;;5048541;28;20044;-76
2022/02/11 09:12:04;;;;;;;9.63;4.75;;;;;;;;;;5048903;28;20048;-78
2022/02/11 09:14:29;;;;;;;7.07;4.10;;;;;;;;;;5052396;28;20029;-77
2022/02/11 09:16:55;;;;;;;7.95;4.13;;;;;;;;;;5045991;28;20132;-77
2022/02/11 09:19:22;;;;;;;9.02;4.57;;;;;;;;;;5043788;28;20021;-78
2022/02/11 09:21:52;;;;;;;12.60;4.93;;;;;;;;;;5051127;28;20035;-78
2022/02/11 09:24:17;;;;;;;9.20;5.20;;;;;;;;;;5049452;28;20025;-78
2022/02/11 09:26:43;;;;;;;6.97;4.15;;;;;;;;;;5050225;28;20343;-77
2022/02/11 09:29:11;;;;;;;10.55;4.32;;;;;;;;;;5046609;28;20021;-77
2022/02/11 09:31:36;;;;;;;8.25;4.38;;;;;;;;;;5047922;28;20028;-77
2022/02/11 09:34:05;;;;;;;8.88;4.00;;;;;;;;;;5047890;28;20024;-77
2022/02/11 09:36:39;;;;;;;8.43;3.70;;;;;;;;;;5048231;28;20091;-78
2022/02/11 09:39:09;;;;;;;7.13;3.70;;;;;;;;;;5046865;28;20037;-77
2022/02/11 09:41:38;;;;;;;9.93;3.35;;;;;;;;;;5042394;28;20183;-77
2022/02/11 09:44:08;;;;;;;7.30;4.05;;;;;;;;;;5048690;28;20437;-77
2022/02/11 09:46:36;;;;;;;9.73;3.97;;;;;;;;;;5044342;28;20040;-77
2022/02/11 09:49:04;;;;;;;8.13;3.03;;;;;;;;;;5042321;28;20029;-78
2022/02/11 09:51:32;;;;;;;6.72;3.78;;;;;;;;;;5059702;28;20122;-78
2022/02/11 09:53:57;;;;;;;9.27;3.97;;;;;;;;;;5042628;28;20029;-77
2022/02/11 09:56:26;;;;;;;9.85;3.80;;;;;;;;;;5046434;28;20154;-77
2022/02/11 09:58:52;;;;;;;7.68;3.22;;;;;;;;;;5041307;28;20032;-78
2022/02/11 10:01:21;;;;;;;7.38;3.17;;;;;;;;;;5050841;28;20158;-77
2022/02/11 10:04:19;;;;;;;11.60;3.17;;;;;;;;;;5053658;28;20025;-77
2022/02/11 10:06:51;;;;;;;7.60;3.15;;;;;;;;;;5046996;28;20562;-77
2022/02/11 10:09:23;;;;;;;7.45;2.83;;;;;;;;;;5049023;28;20088;-77
2022/02/11 10:11:51;;;;;;;10.45;4.90;;;;;;;;;;5059670;28;20055;-77
2022/02/11 10:14:19;;;;;;;8.90;3.90;;;;;;;;;;5045006;28;20033;-77
2022/02/11 10:16:59;;;;;;;7.13;3.28;;;;;;;;;;5044902;28;20036;-77
2022/02/11 10:19:47;;;;;;;5.85;2.80;;;;;;;;;;5046772;28;20068;-76
2022/02/11 10:22:20;;;;;;;7.20;2.88;;;;;;;;;;5061488;28;20053;-76
2022/02/11 10:24:47;;;;;;;5.97;2.60;;;;;;;;;;5043528;28;20021;-76
2022/02/11 10:27:21;;;;;;;7.43;2.80;;;;;;;;;;5045718;28;20033;-78
2022/02/11 10:29:51;;;;;;;7.78;3.17;;;;;;;;;;5063319;28;20024;-78
2022/02/11 10:32:16;;;;;;;;;;;;;;;;;;5050899;28;20051;-75
2022/02/11 10:34:54;;;;;;;7.55;3.63;;;;;;;;;;5063776;28;19912;-75
2022/02/11 10:37:20;;;;;;;9.95;4.28;;;;;;;;;;5047364;28;20035;-76
2022/02/11 10:39:56;;;;;;;7.70;3.00;;;;;;;;;;5050997;28;20024;-76
2022/02/11 10:42:21;;;;;;;7.45;3.55;;;;;;;;;;5046683;28;20517;-76
2022/02/11 10:44:49;;;;;;;9.40;3.67;;;;;;;;;;5044280;28;20056;-76
2022/02/11 10:47:16;;;;;;;9.38;3.60;;;;;;;;;;5042288;28;20028;-76
2022/02/11 10:49:49;;;;;;;8.55;3.80;;;;;;;;;;5059969;28;20086;-76
2022/02/11 10:52:25;;;;;;;9.48;3.80;;;;;;;;;;5058031;28;20033;-76
2022/02/11 10:54:53;;;;;;;9.43;3.70;;;;;;;;;;5059440;28;20035;-75
2022/02/11 10:57:20;;;;;;;10.05;3.72;;;;;;;;;;5046429;28;20021;-77
2022/02/11 10:59:48;;;;;;;10.90;4.22;;;;;;;;;;5053187;28;20009;-76
2022/02/11 11:02:19;;;;;;;8.20;3.72;;;;;;;;;;5044780;28;20032;-77
2022/02/11 11:04:46;;;;;;;7.43;4.03;;;;;;;;;;5045024;28;20036;-76
2022/02/11 11:07:15;;;;;;;7.53;4.60;;;;;;;;;;5044062;28;20018;-76
2022/02/11 11:09:47;;;;;;;6.85;3.47;;;;;;;;;;5047505;28;20021;-76
2022/02/11 11:12:18;;;;;;;7.72;3.78;;;;;;;;;;5044012;28;20033;-76
2022/02/11 11:14:46;;;;;;;6.65;3.15;;;;;;;;;;5058311;28;20035;-76
2022/02/11 11:17:13;;;;;;;8.35;3.40;;;;;;;;;;5046131;28;20386;-76
2022/02/11 11:19:38;;;;;;;14.45;4.78;;;;;;;;;;5042465;28;20025;-77
2022/02/11 11:22:14;;;;;;;13.02;4.53;;;;;;;;;;5048811;28;20059;-76
2022/02/11 11:24:58;;;;;;;16.98;3.75;;;;;;;;;;5064402;28;20090;-76
2022/02/11 11:27:46;;;;;;;9.00;3.72;;;;;;;;;;5047429;28;20033;-77
2022/02/11 11:30:36;;;;;;;9.10;3.55;;;;;;;;;;5043971;28;20489;-77
2022/02/11 11:33:05;;;;;;;5.15;3.20;;;;;;;;;;5048989;28;20029;-77
2022/02/11 11:35:37;;;;;;;6.50;3.20;;;;;;;;;;5052302;28;20107;-77
2022/02/11 11:38:15;;;;;;;8.35;3.40;;;;;;;;;;5051891;28;20033;-77
2022/02/11 11:41:04;;;;;;;8.85;4.13;;;;;;;;;;5051613;28;20040;-78
2022/02/11 11:43:41;;;;;;;7.20;3.65;;;;;;;;;;5048753;28;20114;-75
2022/02/11 11:46:16;;;;;;;10.70;3.92;;;;;;;;;;5046705;28;20477;-77
2022/02/11 11:48:56;;;;;;;7.90;3.92;;;;;;;;;;5062701;28;20033;-77
2022/02/11 11:51:23;;;;;;;8.80;3.70;;;;;;;;;;5060112;28;20562;-77
2022/02/11 11:53:49;;;;;;;8.18;4.72;;;;;;;;;;5047850;28;20032;-77
2022/02/11 11:56:37;;;;;;;12.68;4.60;;;;;;;;;;5051284;28;20025;-77
2022/02/11 11:59:14;;;;;;;10.48;3.40;;;;;;;;;;5050582;28;20500;-77
2022/02/11 12:01:57;;;;;;;8.10;3.90;;;;;;;;;;5045909;28;20209;-76
2022/02/11 12:04:30;;;;;;;6.20;3.35;;;;;;;;;;5063454;28;20056;-76
2022/02/11 12:07:10;;;;;;;6.82;3.53;;;;;;;;;;5052030;28;20492;-77
2022/02/11 12:09:41;;;;;;;11.10;3.95;;;;;;;;;;5046569;28;20039;-76
2022/02/11 12:12:11;;;;;;;12.25;4.38;;;;;;;;;;5048495;28;20048;-75
2022/02/11 12:14:41;;;;;;;6.80;3.63;;;;;;;;;;5050300;28;20063;-76
2022/02/11 12:17:11;;;;;;;11.93;4.40;;;;;;;;;;5050134;28;20040;-78
2022/02/11 12:19:44;;;;;;;7.20;3.42;;;;;;;;;;5046755;28;20040;-76
2022/02/11 12:22:10;;;;;;;8.52;3.45;;;;;;;;;;5049159;28;20037;-77
2022/02/11 12:27:31;;;;;;;6.63;3.25;;;;;;;;;;5046493;28;20039;-76
2022/02/11 12:30:03;;;;;;;10.65;3.70;;;;;;;;;;5049075;28;20516;-76
2022/02/11 12:32:33;;;;;;;5.80;2.80;;;;;;;;;;5045993;28;20025;-75
2022/02/11 12:35:02;;;;;;;8.75;3.33;;;;;;;;;;5042572;28;20490;-75
2022/02/11 12:37:29;;;;;;;9.65;2.70;;;;;;;;;;5046712;28;20029;-75
2022/02/11 12:40:07;;;;;;;7.72;3.35;;;;;;;;;;5046447;28;20029;-76
2022/02/11 12:42:35;;;;;;;18.20;4.32;;;;;;;;;;5047544;28;20436;-76
2022/02/11 12:45:04;;;;;;;16.38;5.63;;;;;;;;;;5044426;28;20021;-76
2022/02/11 12:47:35;;;;;;;11.88;4.65;;;;;;;;;;5045532;28;20017;-75
2022/02/11 12:50:04;;;;;;;12.13;4.40;;;;;;;;;;5049454;28;20033;-74
2022/02/11 12:52:33;;;;;;;;;;;;;;;;;;5042884;28;20064;-75
2022/02/11 12:55:23;;;;;;;47.72;12.35;;;;;;;;;;5051839;28;19919;-76
2022/02/11 12:58:01;;;;;;;14.43;4.70;;;;;;;;;;5052459;28;20033;-76
2022/02/11 13:00:32;;;;;;;11.43;5.05;;;;;;;;;;5049665;28;20098;-74
2022/02/11 13:03:03;;;;;;;10.07;4.70;;;;;;;;;;5065472;28;20047;-74
2022/02/11 13:05:38;;;;;;;13.07;5.95;;;;;;;;;;5052458;28;20116;-75
2022/02/11 13:08:08;;;;;;;12.93;5.15;;;;;;;;;;5049930;28;20021;-75
2022/02/11 13:10:42;;;;;;;9.45;5.03;;;;;;;;;;5050120;28;20024;-76
2022/02/11 13:13:16;;;;;;;14.02;5.47;;;;;;;;;;5049485;28;20444;-76
2022/02/11 13:15:46;;;;;;;13.00;5.47;;;;;;;;;;5050529;28;20067;-76
2022/02/11 13:18:13;;;;;;;11.18;4.88;;;;;;;;;;5050741;28;20515;-76
2022/02/11 13:20:45;;;;;;;15.25;7.35;;;;;;;;;;5049293;28;20055;-77
2022/02/11 13:23:15;;;;;;;27.30;12.25;;;;;;;;;;5049097;28;20035;-76
2022/02/11 13:25:41;;;;;;;;;;;;;;;;;;5043703;28;20112;-76
2022/02/11 13:28:08;;;;;;;22.73;9.60;;;;;;;;;;5049212;28;20013;-75
2022/02/11 13:30:34;;;;;;;15.98;8.25;;;;;;;;;;5049577;28;20036;-76
2022/02/11 13:33:18;;;;;;;14.80;6.35;;;;;;;;;;5053955;28;20027;-78
2022/02/11 13:35:43;;;;;;;9.40;4.25;;;;;;;;;;5053278;28;20033;-78
2022/02/11 13:38:09;;;;;;;11.48;4.53;;;;;;;;;;5054453;28;20047;-78
2022/02/11 13:40:39;;;;;;;10.35;5.57;;;;;;;;;;5048475;28;20765;-78
2022/02/11 13:43:08;;;;;;;14.07;5.70;;;;;;;;;;5049033;28;20477;-77
2022/02/11 13:45:53;;;;;;;9.63;4.60;;;;;;;;;;5066988;28;20037;-77
2022/02/11 13:48:20;;;;;;;13.38;6.30;;;;;;;;;;5051143;28;20025;-77
2022/02/11 13:51:12;;;;;;;7.28;3.95;;;;;;;;;;5055556;28;20490;-76
2022/02/11 13:53:40;;;;;;;8.63;3.17;;;;;;;;;;5043430;28;20113;-76
2022/02/11 13:56:12;;;;;;;7.13;3.08;;;;;;;;;;5067305;28;20305;-77
2022/02/11 13:58:40;;;;;;;9.30;4.15;;;;;;;;;;5051608;28;20021;-77
2022/02/11 14:01:26;;;;;;;11.55;4.28;;;;;;;;;;5051881;28;20020;-77
2022/02/11 14:03:52;;;;;;;6.13;3.70;;;;;;;;;;5051424;28;20028;-76
2022/02/11 14:06:18;;;;;;;7.70;3.13;;;;;;;;;;5043101;28;20024;-75
2022/02/11 14:08:45;;;;;;;7.18;3.15;;;;;;;;;;5044793;28;20060;-75
2022/02/11 14:11:15;;;;;;;9.13;3.67;;;;;;;;;;5052276;28;20071;-75
2022/02/11 14:13:42;;;;;;;5.57;3.28;;;;;;;;;;5047552;28;20040;-75
2022/02/11 14:16:08;;;;;;;6.90;3.70;;;;;;;;;;5048768;28;20104;-75
2022/02/11 14:18:34;;;;;;;5.25;2.45;;;;;;;;;;5047713;28;20469;-77
2022/02/11 14:21:00;;;;;;;10.70;2.88;;;;;;;;;;5046410;28;20478;-75
2022/02/11 14:23:29;;;;;;;7.57;2.88;;;;;;;;;;5049636;28;20120;-74
2022/02/11 14:25:57;;;;;;;5.40;2.65;;;;;;;;;;5046570;28;20402;-76
2022/02/11 14:28:26;;;;;;;7.40;3.80;;;;;;;;;;5048745;28;20032;-75
2022/02/11 14:30:54;;;;;;;6.13;2.70;;;;;;;;;;5046523;28;20032;-74
2022/02/11 14:33:20;;;;;;;7.18;3.38;;;;;;;;;;5050359;28;20032;-75
2022/02/11 14:35:46;;;;;;;5.38;3.20;;;;;;;;;;5062173;28;21525;-75
2022/02/11 14:38:11;;;;;;;15.23;4.53;;;;;;;;;;5044654;28;20033;-75
2022/02/11 14:40:39;;;;;;;7.07;3.63;;;;;;;;;;5045820;28;20532;-74
2022/02/11 14:43:05;;;;;;;4.75;2.33;;;;;;;;;;5042866;28;21996;-77
2022/02/11 14:45:31;;;;;;;4.57;2.30;;;;;;;;;;5048869;28;20037;-79
2022/02/11 14:47:56;;;;;;;3.97;2.65;;;;;;;;;;5051709;28;20017;-77
2022/02/11 14:50:24;;;;;;;2.67;1.92;;;;;;;;;;5048917;28;20115;-77
2022/02/11 14:52:52;;;;;;;6.72;3.00;;;;;;;;;;5051609;28;20082;-77
2022/02/11 14:55:18;;;;;;;5.20;2.40;;;;;;;;;;5056587;28;20021;-77
2022/02/11 14:57:48;;;;;;;5.65;2.10;;;;;;;;;;5055063;28;20508;-75
2022/02/11 15:00:14;;;;;;;4.80;2.40;;;;;;;;;;5050150;28;20021;-76
2022/02/11 15:02:42;;;;;;;5.32;2.95;;;;;;;;;;5061645;28;20027;-77
2022/02/11 15:05:08;;;;;;;6.20;2.45;;;;;;;;;;5057872;28;20156;-77
2022/02/11 15:07:33;;;;;;;8.70;3.30;;;;;;;;;;5048088;28;20116;-75
2022/02/11 15:10:03;;;;;;;7.63;3.65;;;;;;;;;;5056520;28;20040;-75
2022/02/11 15:12:29;;;;;;;5.82;2.70;;;;;;;;;;5051420;28;20028;-76
2022/02/11 15:14:55;;;;;;;10.60;3.47;;;;;;;;;;5049801;28;20401;-76
2022/02/11 15:17:22;;;;;;;5.18;2.90;;;;;;;;;;5052286;28;20441;-77
2022/02/11 15:19:50;;;;;;;6.15;2.92;;;;;;;;;;5052181;28;20029;-75
2022/02/11 15:22:15;;;;;;;6.72;3.20;;;;;;;;;;5063402;28;20037;-75
2022/02/11 15:24:47;;;;;;;6.47;2.28;;;;;;;;;;5061478;28;20027;-75
2022/02/11 15:27:12;;;;;;;9.77;2.42;;;;;;;;;;5049663;28;20118;-77
2022/02/11 15:29:38;;;;;;;5.68;2.40;;;;;;;;;;5054092;28;20041;-77
2022/02/11 15:32:04;;;;;;;7.45;2.65;;;;;;;;;;5054100;28;20033;-76
2022/02/11 15:34:30;;;;;;;5.45;2.78;;;;;;;;;;5065755;28;20124;-76
2022/02/11 15:36:55;;;;;;;5.13;2.83;;;;;;;;;;5050988;28;20030;-77
2022/02/11 15:39:21;;;;;;;6.43;2.90;;;;;;;;;;5054739;28;20029;-77
2022/02/11 15:41:48;;;;;;;6.50;2.90;;;;;;;;;;5053960;28;20470;-77
2022/02/11 15:44:14;;;;;;;8.95;2.53;;;;;;;;;;5054602;28;20029;-75
2022/02/11 15:46:41;;;;;;;5.32;2.40;;;;;;;;;;5053719;28;20025;-77
2022/02/11 15:49:09;;;;;;;4.78;2.55;;;;;;;;;;5054075;28;20492;-75
2022/02/11 15:51:34;;;;;;;6.97;3.67;;;;;;;;;;5040189;28;20113;-75
2022/02/11 15:54:00;;;;;;;10.85;4.15;;;;;;;;;;5048078;28;20048;-77
2022/02/11 15:56:28;;;;;;;10.40;4.50;;;;;;;;;;5048210;28;20022;-76
2022/02/11 15:58:53;;;;;;;9.38;3.53;;;;;;;;;;5052861;28;20359;-76
2022/02/11 16:01:19;;;;;;;6.43;3.25;;;;;;;;;;5072384;28;20023;-75
2022/02/11 16:03:45;;;;;;;9.70;4.03;;;;;;;;;;5068740;28;20029;-75
2022/02/11 16:06:11;;;;;;;5.88;3.67;;;;;;;;;;5046182;28;20027;-76
2022/02/11 16:08:36;;;;;;;8.07;4.20;;;;;;;;;;5053800;28;20067;-76
2022/02/11 16:11:03;;;;;;;10.60;4.45;;;;;;;;;;5051424;28;20029;-77
2022/02/11 16:13:29;;;;;;;9.32;4.75;;;;;;;;;;5053934;28;20335;-75
2022/02/11 16:15:54;;;;;;;7.55;3.40;;;;;;;;;;5054982;28;20025;-77
2022/02/11 16:18:23;;;;;;;6.25;3.40;;;;;;;;;;5052587;28;20043;-76
2022/02/11 16:20:50;;;;;;;4.38;2.90;;;;;;;;;;5051951;28;20473;-75
2022/02/11 16:23:18;;;;;;;7.55;3.83;;;;;;;;;;5055071;28;20032;-74
2022/02/11 16:25:45;;;;;;;11.68;4.10;;;;;;;;;;5050365;28;20032;-74
2022/02/11 16:28:13;;;;;;;9.85;4.22;;;;;;;;;;5065042;28;20143;-74
2022/02/11 16:30:39;;;;;;;15.85;5.85;;;;;;;;;;5052552;28;20025;-76
2022/02/11 16:33:06;;;;;;;12.50;6.28;;;;;;;;;;5054093;28;20035;-76
2022/02/11 16:35:33;;;;;;;13.85;7.88;;;;;;;;;;5055876;28;20528;-75
2022/02/11 16:37:59;;;;;;;12.13;6.55;;;;;;;;;;5047365;28;20055;-75
2022/02/11 16:40:26;;;;;;;12.68;6.72;;;;;;;;;;5043777;28;20057;-75
2022/02/11 16:42:52;;;;;;;9.35;5.68;;;;;;;;;;5047404;28;20094;-75
2022/02/11 16:45:18;;;;;;;12.40;5.47;;;;;;;;;;5043492;28;20485;-76
2022/02/11 16:47:43;;;;;;;17.27;6.63;;;;;;;;;;5049577;28;20028;-76
2022/02/11 16:50:09;;;;;;;24.40;7.38;;;;;;;;;;5054400;28;20021;-75
2022/02/11 16:52:38;;;;;;;44.00;11.52;;;;;;;;;;5048141;28;20020;-77
2022/02/11 16:55:06;;;;;;;28.55;9.55;;;;;;;;;;5046662;28;20206;-76
2022/02/11 16:57:33;;;;;;;19.88;7.75;;;;;;;;;;5048530;28;20123;-76
2022/02/11 16:59:59;;;;;;;18.50;7.05;;;;;;;;;;5049738;28;20071;-75
2022/02/11 17:02:25;;;;;;;15.15;7.20;;;;;;;;;;5047437;28;20056;-75
2022/02/11 17:04:51;;;;;;;15.38;7.25;;;;;;;;;;5054691;28;20023;-75
2022/02/11 17:07:18;;;;;;;17.40;6.43;;;;;;;;;;5048353;28;20021;-76
2022/02/11 17:09:44;;;;;;;14.80;6.00;;;;;;;;;;5050082;28;20036;-76
2022/02/11 17:12:12;;;;;;;11.52;4.82;;;;;;;;;;5048544;28;20033;-76
2022/02/11 17:14:38;;;;;;;9.88;5.30;;;;;;;;;;5051206;28;20143;-75
2022/02/11 17:17:04;;;;;;;32.08;19.88;;;;;;;;;;5046995;28;20123;-76
2022/02/11 17:19:30;;;;;;;24.60;13.75;;;;;;;;;;5047079;28;20032;-75
2022/02/11 17:21:56;;;;;;;11.80;6.75;;;;;;;;;;5046568;28;20025;-76
2022/02/11 17:24:24;;;;;;;13.45;6.43;;;;;;;;;;5050420;28;20107;-76
2022/02/11 17:26:51;;;;;;;16.77;8.15;;;;;;;;;;5049167;28;20028;-76
2022/02/11 17:29:17;;;;;;;17.50;7.95;;;;;;;;;;5051771;28;20025;-76
2022/02/11 17:31:43;;;;;;;17.60;7.90;;;;;;;;;;5048417;28;20032;-75
2022/02/11 17:34:09;;;;;;;42.55;16.92;;;;;;;;;;5049250;28;20033;-75
2022/02/11 17:36:35;;;;;;;34.20;14.80;;;;;;;;;;5048697;28;20120;-75
2022/02/11 17:39:07;;;;;;;55.72;18.48;;;;;;;;;;5062852;28;20124;-76
2022/02/11 17:41:33;;;;;;;38.20;13.82;;;;;;;;;;5053134;28;20323;-77
2022/02/11 17:44:00;;;;;;;36.22;13.23;;;;;;;;;;5066054;28;20102;-76
2022/02/11 17:46:26;;;;;;;17.85;6.97;;;;;;;;;;5049974;28;20017;-76
2022/02/11 17:48:55;;;;;;;14.68;6.68;;;;;;;;;;5049706;28;20112;-76
2022/02/11 17:51:25;;;;;;;40.17;14.75;;;;;;;;;;5050114;28;20032;-76
2022/02/11 17:53:51;;;;;;;32.80;9.80;;;;;;;;;;5049054;28;20520;-78
2022/02/11 17:56:16;;;;;;;20.55;8.13;;;;;;;;;;5050279;28;20458;-75
2022/02/11 17:58:44;;;;;;;21.38;8.25;;;;;;;;;;5049674;28;20031;-75
2022/02/11 18:01:10;;;;;;;23.67;9.32;;;;;;;;;;5064633;28;20033;-76
2022/02/11 18:03:35;;;;;;;17.40;6.38;;;;;;;;;;5051198;28;20374;-77
2022/02/11 18:06:01;;;;;;;16.35;6.20;;;;;;;;;;5047927;28;20020;-77
2022/02/11 18:08:27;;;;;;;12.15;6.22;;;;;;;;;;5048426;28;20029;-76
2022/02/11 18:10:55;;;;;;;13.95;5.22;;;;;;;;;;5042605;28;20028;-76
2022/02/11 18:13:29;;;;;;;12.80;5.57;;;;;;;;;;5044634;28;20607;-77
2022/02/11 18:15:55;;;;;;;14.60;6.57;;;;;;;;;;5042878;28;20029;-75
2022/02/11 18:18:21;;;;;;;16.85;7.13;;;;;;;;;;5058843;28;20030;-76
2022/02/11 18:20:46;;;;;;;17.17;7.60;;;;;;;;;;5044736;28;20105;-75
2022/02/11 18:23:12;;;;;;;18.98;7.78;;;;;;;;;;5042770;28;20037;-75
2022/02/11 18:25:41;;;;;;;22.33;8.90;;;;;;;;;;5044188;28;20033;-76
2022/02/11 18:28:08;;;;;;;17.23;9.70;;;;;;;;;;5040760;28;20517;-76
2022/02/11 18:30:33;;;;;;;20.02;8.38;;;;;;;;;;5045956;28;20157;-76